Time;durP1;ratioP1;P1;durP2;ratioP2;P2;SDS_P1;SDS_P2;PMS_P1;PMS_P2;Temp;Humidity;BMP_temperature;BMP_pressure;BME280_temperature;BME280_humidity;BME280_pressure;Samples;Min_cycle;Max_cycle;Signal;HPM_P1;HPM_P2
2021/10/03 00:01:05;;;;;;;10.25;8.35;;;13.60;99.90;;;;;;4975558;28;20688;-72
2021/10/03 00:03:31;;;;;;;10.13;8.63;;;13.50;99.90;;;;;;4975260;28;20054;-71
2021/10/03 00:05:59;;;;;;;10.05;8.60;;;13.50;99.90;;;;;;4974990;28;20023;-71
2021/10/03 00:08:26;;;;;;;10.90;9.05;;;13.40;99.90;;;;;;4974484;28;20485;-72
2021/10/03 00:10:53;;;;;;;12.38;9.10;;;13.40;99.90;;;;;;4975445;28;20377;-71
2021/10/03 00:13:19;;;;;;;11.52;9.25;;;13.40;99.90;;;;;;4975473;28;20037;-72
2021/10/03 00:15:45;;;;;;;10.18;8.55;;;13.40;99.90;;;;;;4975058;28;20046;-72
2021/10/03 00:18:11;;;;;;;10.75;9.38;;;13.30;99.90;;;;;;4974870;28;20022;-72
2021/10/03 00:20:38;;;;;;;11.50;9.05;;;13.30;99.90;;;;;;4975433;28;20058;-72
2021/10/03 00:23:04;;;;;;;12.48;9.27;;;13.20;99.90;;;;;;4973878;28;20069;-71
2021/10/03 00:25:30;;;;;;;11.63;8.65;;;13.20;99.90;;;;;;4957694;28;20685;-71
2021/10/03 00:27:56;;;;;;;9.32;8.20;;;13.20;99.90;;;;;;4956360;29;20038;-72
2021/10/03 00:30:23;;;;;;;10.40;8.25;;;13.10;99.90;;;;;;4956069;29;20129;-72
2021/10/03 00:32:49;;;;;;;11.00;8.48;;;13.00;99.90;;;;;;4955517;29;20118;-72
2021/10/03 00:35:16;;;;;;;11.25;8.35;;;13.00;99.90;;;;;;4954810;29;20063;-73
2021/10/03 00:37:42;;;;;;;11.52;8.77;;;13.20;99.90;;;;;;4958803;29;20023;-72
2021/10/03 00:40:08;;;;;;;11.50;9.07;;;13.20;99.90;;;;;;4958484;29;20028;-72
2021/10/03 00:42:35;;;;;;;12.02;8.85;;;13.10;99.90;;;;;;4958279;29;20034;-72
2021/10/03 00:45:02;;;;;;;11.25;8.60;;;13.10;99.90;;;;;;4958278;29;20094;-71
2021/10/03 00:47:27;;;;;;;9.45;7.72;;;13.10;99.90;;;;;;4958911;29;20045;-71
2021/10/03 00:49:53;;;;;;;9.52;8.30;;;13.00;99.90;;;;;;4956017;29;20067;-71
2021/10/03 00:52:18;;;;;;;8.75;7.85;;;13.00;99.90;;;;;;4955736;29;20046;-71
2021/10/03 00:54:44;;;;;;;9.43;7.97;;;13.00;99.90;;;;;;4966158;28;20664;-71
2021/10/03 00:57:10;;;;;;;10.63;7.95;;;13.10;99.90;;;;;;4974885;28;20034;-72
2021/10/03 00:59:36;;;;;;;10.23;7.60;;;13.10;99.90;;;;;;4972894;28;20026;-72
2021/10/03 01:02:03;;;;;;;9.30;7.70;;;12.90;99.90;;;;;;4974070;28;20046;-71
2021/10/03 01:04:28;;;;;;;9.70;7.30;;;13.00;99.90;;;;;;4973712;28;20069;-72
2021/10/03 01:06:54;;;;;;;8.48;7.47;;;12.90;99.90;;;;;;4974557;28;20026;-72
2021/10/03 01:09:21;;;;;;;10.05;7.85;;;13.00;99.90;;;;;;4974396;28;20023;-71
2021/10/03 01:11:48;;;;;;;8.63;7.53;;;13.10;99.90;;;;;;4974322;28;20031;-71
2021/10/03 01:14:16;;;;;;;10.18;8.40;;;13.10;99.90;;;;;;5009019;23;20046;-72
2021/10/03 01:16:41;;;;;;;8.18;6.30;;;13.20;99.90;;;;;;4979640;28;20401;-73
2021/10/03 01:19:08;;;;;;;7.13;6.38;;;13.10;99.90;;;;;;4974154;28;20030;-75
2021/10/03 01:21:34;;;;;;;11.13;7.90;;;13.10;99.90;;;;;;4973727;28;20588;-74
2021/10/03 01:24:00;;;;;;;8.90;6.80;;;13.30;99.90;;;;;;4975126;28;20110;-75
2021/10/03 01:26:27;;;;;;;9.30;7.20;;;13.20;99.90;;;;;;4974188;28;20109;-74
2021/10/03 01:28:53;;;;;;;8.90;7.47;;;13.20;99.90;;;;;;4972684;28;20484;-76
2021/10/03 01:31:28;;;;;;;9.32;8.25;;;13.30;99.90;;;;;;4972430;28;20038;-76
2021/10/03 01:33:54;;;;;;;8.48;7.60;;;13.50;99.90;;;;;;4971321;28;20109;-77
2021/10/03 01:36:20;;;;;;;8.00;6.63;;;13.50;99.90;;;;;;4973112;28;20174;-76
2021/10/03 01:38:47;;;;;;;11.80;8.05;;;13.30;99.90;;;;;;4973628;28;20041;-74
2021/10/03 01:41:12;;;;;;;9.50;6.82;;;13.40;99.90;;;;;;4972316;28;20029;-74
2021/10/03 01:43:38;;;;;;;10.15;6.65;;;13.40;99.90;;;;;;4972858;28;20396;-74
2021/10/03 01:46:04;;;;;;;8.75;7.60;;;13.20;99.90;;;;;;4970834;28;20023;-75
2021/10/03 01:48:31;;;;;;;8.43;7.03;;;13.30;99.90;;;;;;4973178;28;20061;-76
2021/10/03 01:51:00;;;;;;;7.88;6.70;;;13.20;99.90;;;;;;4973278;28;20034;-74
2021/10/03 01:53:28;;;;;;;9.55;7.82;;;13.10;99.90;;;;;;4971620;28;20122;-75
2021/10/03 01:55:55;;;;;;;9.63;7.35;;;13.20;99.90;;;;;;4972198;28;20026;-76
2021/10/03 01:58:23;;;;;;;7.88;6.95;;;13.30;99.90;;;;;;4971410;28;20029;-76
2021/10/03 02:00:52;;;;;;;8.52;7.50;;;13.20;99.90;;;;;;4973025;28;20114;-75
2021/10/03 02:03:18;;;;;;;8.27;7.35;;;13.20;99.90;;;;;;4971687;28;20019;-75
2021/10/03 02:05:46;;;;;;;9.85;7.80;;;13.20;99.90;;;;;;4972765;28;20026;-76
2021/10/03 02:08:14;;;;;;;11.15;8.73;;;13.30;99.90;;;;;;4972928;28;20101;-74
2021/10/03 02:10:44;;;;;;;12.45;8.50;;;13.40;99.90;;;;;;4973050;28;20504;-76
2021/10/03 02:13:11;;;;;;;10.90;8.18;;;13.50;99.90;;;;;;4972800;28;20062;-74
2021/10/03 02:15:39;;;;;;;11.80;8.13;;;13.40;99.90;;;;;;4972636;28;20035;-76
2021/10/03 02:18:07;;;;;;;10.18;8.43;;;13.40;99.90;;;;;;4973261;28;20019;-76
2021/10/03 02:20:34;;;;;;;9.25;8.25;;;13.50;99.90;;;;;;4971681;28;20106;-76
2021/10/03 02:23:01;;;;;;;10.40;8.30;;;13.30;99.90;;;;;;4971945;28;20059;-76
2021/10/03 02:25:27;;;;;;;8.73;7.82;;;13.50;99.90;;;;;;4970955;28;20057;-76
2021/10/03 02:27:52;;;;;;;9.00;7.57;;;13.40;99.90;;;;;;4972877;28;20063;-76
2021/10/03 02:30:18;;;;;;;9.60;8.25;;;13.30;99.90;;;;;;4972507;28;20037;-76
2021/10/03 02:32:44;;;;;;;10.10;8.38;;;13.30;99.90;;;;;;4972521;28;20444;-75
2021/10/03 02:35:11;;;;;;;11.60;8.73;;;13.40;99.90;;;;;;4972749;28;20457;-74
2021/10/03 02:37:38;;;;;;;11.57;8.63;;;13.30;99.90;;;;;;4971664;28;20042;-76
2021/10/03 02:40:07;;;;;;;9.77;7.80;;;13.40;99.90;;;;;;4972732;28;20058;-75
2021/10/03 02:42:33;;;;;;;14.40;8.48;;;13.30;99.90;;;;;;4971426;28;20038;-76
2021/10/03 02:44:59;;;;;;;11.18;8.40;;;13.30;99.90;;;;;;4972029;28;20388;-76
2021/10/03 02:47:25;;;;;;;12.52;9.20;;;13.40;99.90;;;;;;4976928;28;20023;-77
2021/10/03 02:49:50;;;;;;;12.70;8.20;;;13.30;99.90;;;;;;4977416;28;20114;-76
2021/10/03 02:52:17;;;;;;;9.38;7.85;;;13.20;99.90;;;;;;4977036;28;20027;-74
2021/10/03 02:54:43;;;;;;;11.13;8.15;;;13.00;99.90;;;;;;4975970;28;20447;-76
2021/10/03 02:57:10;;;;;;;8.65;7.72;;;13.00;99.90;;;;;;4976668;28;20106;-75
2021/10/03 02:59:36;;;;;;;10.95;7.90;;;13.00;99.90;;;;;;4976277;28;20031;-77
2021/10/03 03:02:02;;;;;;;10.57;9.15;;;13.00;99.90;;;;;;4976538;28;20580;-75
2021/10/03 03:04:28;;;;;;;11.15;8.77;;;13.00;99.90;;;;;;4975853;28;20027;-76
2021/10/03 03:06:53;;;;;;;9.95;7.93;;;13.10;99.90;;;;;;4976194;28;20420;-76
2021/10/03 03:09:19;;;;;;;12.57;8.77;;;12.90;99.90;;;;;;4976203;28;20030;-76
2021/10/03 03:11:45;;;;;;;12.20;9.05;;;12.90;99.90;;;;;;4975258;28;20069;-75
2021/10/03 03:14:11;;;;;;;9.10;8.20;;;12.80;99.90;;;;;;4975942;28;20097;-76
2021/10/03 03:16:45;;;;;;;10.68;9.02;;;12.80;99.90;;;;;;4975428;28;20452;-74
2021/10/03 03:19:11;;;;;;;10.45;8.25;;;12.80;99.90;;;;;;4974776;28;20046;-77
2021/10/03 03:21:37;;;;;;;12.95;9.10;;;12.80;99.90;;;;;;4974554;28;20748;-75
2021/10/03 03:24:04;;;;;;;11.82;9.10;;;12.70;99.90;;;;;;4974469;28;20023;-74
2021/10/03 03:26:30;;;;;;;10.82;8.70;;;12.70;99.90;;;;;;4973939;28;20019;-76
2021/10/03 03:28:55;;;;;;;10.18;8.80;;;12.60;99.90;;;;;;4973937;28;20041;-76
2021/10/03 03:31:21;;;;;;;12.70;9.52;;;12.60;99.90;;;;;;4975638;28;20030;-74
2021/10/03 03:33:47;;;;;;;11.48;9.60;;;12.60;99.90;;;;;;4975740;28;20396;-76
2021/10/03 03:36:13;;;;;;;10.30;8.55;;;12.60;99.90;;;;;;4974663;28;20046;-75
2021/10/03 03:38:38;;;;;;;10.98;8.20;;;12.40;99.90;;;;;;4975285;28;20031;-76
2021/10/03 03:41:06;;;;;;;16.23;8.48;;;12.40;99.90;;;;;;4975355;28;20051;-74
2021/10/03 03:43:33;;;;;;;10.20;9.02;;;12.40;99.90;;;;;;4975016;28;20031;-76
2021/10/03 03:45:59;;;;;;;14.25;9.95;;;12.50;99.90;;;;;;4973521;28;20027;-76
2021/10/03 03:48:24;;;;;;;10.55;8.85;;;12.60;99.90;;;;;;4975333;28;20442;-75
2021/10/03 03:50:50;;;;;;;7.95;7.13;;;12.50;99.90;;;;;;4975109;28;20482;-75
2021/10/03 03:53:16;;;;;;;8.73;7.90;;;12.30;99.90;;;;;;4975165;28;20062;-76
2021/10/03 03:55:42;;;;;;;11.73;8.88;;;12.30;99.90;;;;;;4974598;28;20445;-76
2021/10/03 03:58:08;;;;;;;11.40;9.10;;;12.40;99.90;;;;;;4972933;28;20030;-76
2021/10/03 04:00:34;;;;;;;14.57;9.45;;;12.30;99.90;;;;;;4975304;28;20117;-76
2021/10/03 04:02:59;;;;;;;8.95;7.85;;;12.30;99.90;;;;;;4974025;28;20389;-76
2021/10/03 04:05:25;;;;;;;14.43;9.38;;;12.10;99.90;;;;;;4973565;28;20069;-76
2021/10/03 04:07:51;;;;;;;11.98;9.68;;;12.10;99.90;;;;;;4975680;28;20023;-75
2021/10/03 04:10:16;;;;;;;12.75;9.57;;;12.20;99.90;;;;;;4975251;28;20525;-75
2021/10/03 04:12:42;;;;;;;14.00;10.32;;;12.30;99.90;;;;;;4975128;28;20034;-73
2021/10/03 04:15:08;;;;;;;12.52;9.18;;;12.30;99.90;;;;;;4974345;28;20042;-76
2021/10/03 04:17:34;;;;;;;12.40;9.90;;;12.30;99.90;;;;;;4975305;28;20034;-77
2021/10/03 04:20:00;;;;;;;11.13;8.95;;;12.30;99.90;;;;;;4975024;28;20054;-76
2021/10/03 04:22:26;;;;;;;10.50;8.75;;;12.30;99.90;;;;;;4974904;28;20051;-75
2021/10/03 04:24:52;;;;;;;10.75;8.07;;;12.50;99.90;;;;;;4974807;28;20089;-76
2021/10/03 04:27:18;;;;;;;11.15;9.13;;;12.40;99.90;;;;;;4975393;28;20030;-76
2021/10/03 04:29:43;;;;;;;10.77;8.32;;;12.30;99.90;;;;;;4973809;28;20034;-76
2021/10/03 04:32:09;;;;;;;14.90;9.15;;;12.30;99.90;;;;;;4974417;28;20397;-75
2021/10/03 04:34:35;;;;;;;11.80;10.30;;;12.30;99.90;;;;;;4973702;28;20038;-74
2021/10/03 04:37:01;;;;;;;10.07;8.88;;;12.40;99.90;;;;;;4975325;28;20033;-74
2021/10/03 04:39:28;;;;;;;11.30;9.52;;;12.30;99.90;;;;;;4974135;28;20088;-77
2021/10/03 04:41:54;;;;;;;14.07;9.32;;;12.40;99.90;;;;;;4974490;28;20535;-76
2021/10/03 04:44:20;;;;;;;11.85;9.60;;;12.30;99.90;;;;;;4973847;28;20023;-76
2021/10/03 04:46:45;;;;;;;11.68;9.52;;;12.30;99.90;;;;;;4984498;28;20027;-75
2021/10/03 04:49:11;;;;;;;13.90;9.98;;;12.20;99.90;;;;;;4986891;28;20023;-75
2021/10/03 04:51:37;;;;;;;10.90;8.85;;;12.30;99.90;;;;;;4983387;28;20501;-76
2021/10/03 04:54:02;;;;;;;14.55;9.02;;;12.20;99.90;;;;;;4980817;28;20537;-76
2021/10/03 04:56:28;;;;;;;10.18;8.68;;;12.00;99.90;;;;;;4979473;28;20057;-76
2021/10/03 04:58:54;;;;;;;13.00;9.13;;;11.90;99.90;;;;;;4977435;28;20473;-76
2021/10/03 05:01:20;;;;;;;10.57;8.68;;;12.10;99.90;;;;;;4975002;28;20034;-77
2021/10/03 05:03:46;;;;;;;13.65;8.77;;;12.20;99.90;;;;;;4973118;28;20664;-75
2021/10/03 05:06:12;;;;;;;10.40;8.63;;;12.30;99.90;;;;;;4973887;28;20123;-75
2021/10/03 05:08:37;;;;;;;10.05;8.93;;;12.40;99.90;;;;;;4974602;28;20038;-77
2021/10/03 05:11:04;;;;;;;11.38;7.85;;;12.30;99.90;;;;;;4975073;28;20030;-77
2021/10/03 05:13:30;;;;;;;10.50;8.07;;;12.20;99.90;;;;;;4974497;28;20034;-75
2021/10/03 05:15:57;;;;;;;10.70;7.57;;;12.20;99.90;;;;;;4974796;28;20496;-76
2021/10/03 05:18:23;;;;;;;9.85;7.30;;;12.10;99.90;;;;;;4977693;28;20046;-76
2021/10/03 05:20:50;;;;;;;12.02;8.15;;;12.00;99.90;;;;;;4972746;28;20032;-74
2021/10/03 05:23:16;;;;;;;10.43;8.23;;;12.00;99.90;;;;;;4977824;28;20035;-74
2021/10/03 05:25:42;;;;;;;9.93;8.23;;;12.20;99.90;;;;;;4965529;28;20057;-76
2021/10/03 05:28:08;;;;;;;10.35;7.88;;;12.30;99.90;;;;;;4958252;28;20054;-76
2021/10/03 05:30:33;;;;;;;9.40;8.02;;;12.10;99.90;;;;;;4955934;28;20069;-75
2021/10/03 05:32:59;;;;;;;9.50;8.38;;;12.20;99.90;;;;;;4953720;28;20023;-76
2021/10/03 05:35:25;;;;;;;12.48;9.43;;;12.30;99.90;;;;;;4956599;28;20064;-75
2021/10/03 05:37:50;;;;;;;9.07;8.15;;;12.30;99.90;;;;;;4957558;28;20067;-75
2021/10/03 05:40:18;;;;;;;10.90;9.07;;;12.10;99.90;;;;;;4947805;28;20039;-80
2021/10/03 05:42:44;;;;;;;12.30;8.35;;;12.10;99.90;;;;;;4952142;28;20033;-80
2021/10/03 05:45:10;;;;;;;9.25;7.13;;;12.10;99.90;;;;;;4957469;28;20043;-81
2021/10/03 05:47:36;;;;;;;10.07;7.65;;;12.30;99.90;;;;;;4975017;28;20037;-81
2021/10/03 05:50:02;;;;;;;10.45;7.97;;;12.30;99.90;;;;;;4977149;28;20058;-81
2021/10/03 05:52:28;;;;;;;11.60;8.40;;;12.30;99.90;;;;;;4960954;28;20028;-81
2021/10/03 05:54:53;;;;;;;10.93;8.70;;;12.10;99.90;;;;;;4957917;29;20439;-80
2021/10/03 05:57:19;;;;;;;11.95;8.18;;;12.30;99.90;;;;;;4957830;29;20406;-82
2021/10/03 05:59:45;;;;;;;11.80;8.50;;;12.40;99.90;;;;;;4973386;28;20034;-81
2021/10/03 06:02:11;;;;;;;10.68;7.35;;;12.40;99.90;;;;;;4976918;28;20145;-82
2021/10/03 06:04:37;;;;;;;9.77;7.38;;;12.30;99.90;;;;;;4937535;28;20100;-82
2021/10/03 06:07:03;;;;;;;8.68;7.82;;;12.30;99.90;;;;;;4938705;29;20051;-82
2021/10/03 06:09:28;;;;;;;9.00;7.40;;;12.50;99.90;;;;;;4938936;29;20020;-81
2021/10/03 06:11:54;;;;;;;13.80;7.93;;;12.80;99.90;;;;;;4949605;28;20051;-82
2021/10/03 06:14:20;;;;;;;8.73;6.75;;;12.90;99.90;;;;;;4937320;29;20091;-81
2021/10/03 06:16:45;;;;;;;8.80;7.07;;;12.80;99.90;;;;;;4968506;28;20045;-82
2021/10/03 06:19:12;;;;;;;7.75;6.95;;;12.90;99.90;;;;;;4977375;28;20545;-82
2021/10/03 06:21:39;;;;;;;12.93;6.90;;;13.00;99.90;;;;;;4976789;28;20296;-82
2021/10/03 06:24:06;;;;;;;8.57;7.43;;;12.90;99.90;;;;;;4977172;28;20027;-82
2021/10/03 06:26:32;;;;;;;11.18;9.05;;;13.20;99.90;;;;;;4977251;28;20114;-80
2021/10/03 06:28:57;;;;;;;8.88;6.68;;;13.50;99.90;;;;;;4975090;28;20564;-81
2021/10/03 06:31:23;;;;;;;12.20;6.90;;;13.60;99.90;;;;;;4964942;28;20038;-82
2021/10/03 06:33:49;;;;;;;7.72;6.40;;;13.50;99.90;;;;;;4956722;29;20035;-81
2021/10/03 06:36:15;;;;;;;9.65;7.03;;;13.60;99.90;;;;;;4956711;28;20023;-81
2021/10/03 06:38:41;;;;;;;10.15;7.22;;;13.90;99.90;;;;;;4956982;28;20031;-81
2021/10/03 06:41:06;;;;;;;7.35;6.50;;;13.90;99.90;;;;;;4957589;29;20035;-80
2021/10/03 06:43:35;;;;;;;7.75;6.55;;;14.00;99.90;;;;;;4956882;29;20062;-80
2021/10/03 06:46:03;;;;;;;7.75;6.50;;;14.00;99.90;;;;;;4963927;28;20110;-81
2021/10/03 06:48:30;;;;;;;9.30;6.80;;;14.20;99.90;;;;;;4974384;28;20019;-80
2021/10/03 06:50:55;;;;;;;9.77;6.70;;;14.30;99.90;;;;;;4976586;28;20035;-83
2021/10/03 06:53:21;;;;;;;10.10;6.75;;;14.30;99.90;;;;;;4975043;28;20081;-80
2021/10/03 06:55:47;;;;;;;8.13;5.60;;;14.50;99.90;;;;;;4976602;28;20035;-80
2021/10/03 06:58:12;;;;;;;6.38;5.78;;;14.50;99.90;;;;;;4977322;28;20026;-81
2021/10/03 07:00:38;;;;;;;7.35;6.32;;;14.50;99.90;;;;;;4984808;28;20242;-78
2021/10/03 07:03:04;;;;;;;7.13;6.28;;;14.60;99.90;;;;;;4973841;28;20055;-80
2021/10/03 07:05:30;;;;;;;7.15;6.30;;;14.70;99.90;;;;;;4958304;28;20524;-80
2021/10/03 07:07:55;;;;;;;12.45;7.03;;;14.70;99.90;;;;;;4958722;28;20031;-80
2021/10/03 07:10:21;;;;;;;6.55;5.85;;;14.80;99.90;;;;;;4959305;29;20047;-80
2021/10/03 07:12:47;;;;;;;9.05;6.15;;;14.70;99.90;;;;;;4957222;29;20031;-79
2021/10/03 07:15:13;;;;;;;8.07;6.45;;;14.70;99.90;;;;;;4960101;28;20085;-81
2021/10/03 07:17:39;;;;;;;7.95;6.20;;;14.60;99.90;;;;;;4976491;28;20039;-81
2021/10/03 07:20:05;;;;;;;8.57;6.18;;;14.50;99.90;;;;;;4974139;28;20030;-79
2021/10/03 07:22:31;;;;;;;9.20;6.88;;;14.40;99.90;;;;;;4946061;28;20024;-81
2021/10/03 07:24:57;;;;;;;7.72;6.57;;;14.40;99.90;;;;;;4945024;28;20118;-82
2021/10/03 07:27:23;;;;;;;7.40;6.70;;;14.50;99.90;;;;;;4944696;28;20027;-82
2021/10/03 07:29:48;;;;;;;7.35;6.65;;;14.80;99.90;;;;;;4946170;29;20029;-81
2021/10/03 07:32:16;;;;;;;10.77;7.28;;;14.90;99.90;;;;;;4946293;28;20039;-80
2021/10/03 07:34:42;;;;;;;7.85;6.30;;;14.90;99.90;;;;;;4951191;28;20038;-78
2021/10/03 07:37:07;;;;;;;8.55;6.65;;;15.00;99.90;;;;;;4950437;29;20102;-79
2021/10/03 07:39:36;;;;;;;7.70;6.43;;;15.00;99.90;;;;;;4950013;28;20040;-80
2021/10/03 07:42:03;;;;;;;7.65;5.72;;;14.90;99.90;;;;;;4948456;29;20027;-80
2021/10/03 07:44:29;;;;;;;6.32;5.70;;;14.80;99.90;;;;;;4948349;29;20030;-80
2021/10/03 07:46:55;;;;;;;8.23;6.75;;;14.70;99.90;;;;;;4948627;29;20019;-80
2021/10/03 07:49:21;;;;;;;7.75;6.35;;;14.90;99.90;;;;;;4943566;28;20062;-78
2021/10/03 07:51:47;;;;;;;7.35;6.55;;;14.90;99.90;;;;;;4948668;28;20385;-78
2021/10/03 07:54:13;;;;;;;8.20;6.60;;;14.90;99.90;;;;;;4948115;28;20552;-80
2021/10/03 07:56:38;;;;;;;7.32;6.40;;;14.80;99.90;;;;;;4946560;28;20439;-81
2021/10/03 07:59:04;;;;;;;7.38;6.05;;;14.90;99.90;;;;;;4947621;29;20137;-79
2021/10/03 08:01:30;;;;;;;6.70;5.70;;;15.00;99.90;;;;;;4947110;29;20060;-79
2021/10/03 08:03:58;;;;;;;9.73;5.60;;;15.00;99.90;;;;;;4947174;29;20027;-79
2021/10/03 08:06:24;;;;;;;9.80;6.63;;;15.20;99.90;;;;;;4946671;28;20027;-79
2021/10/03 08:08:49;;;;;;;9.18;6.28;;;15.40;99.90;;;;;;4947495;29;20030;-80
2021/10/03 08:11:15;;;;;;;6.82;5.55;;;15.50;99.90;;;;;;4947968;28;20031;-80
2021/10/03 08:13:41;;;;;;;7.25;6.38;;;15.70;99.90;;;;;;4946664;29;20060;-79
2021/10/03 08:16:08;;;;;;;9.07;7.00;;;15.60;99.90;;;;;;4970459;28;20035;-79
2021/10/03 08:18:35;;;;;;;9.25;6.68;;;15.60;99.90;;;;;;4947158;29;20023;-80
2021/10/03 08:21:01;;;;;;;7.53;6.10;;;15.90;99.90;;;;;;4948790;29;20079;-81
2021/10/03 08:25:55;;;;;;;6.70;5.18;;;15.90;99.90;;;;;;4991947;28;20488;-76
2021/10/03 08:28:21;;;;;;;8.25;5.07;;;16.20;99.90;;;;;;5004923;28;20081;-76
2021/10/03 08:30:47;;;;;;;8.48;4.85;;;15.90;99.90;;;;;;5003818;28;20040;-76
2021/10/03 08:33:13;;;;;;;9.40;5.72;;;15.80;99.90;;;;;;5001318;28;20472;-76
2021/10/03 08:35:38;;;;;;;8.57;5.65;;;16.00;99.90;;;;;;4991199;28;20042;-76
2021/10/03 08:38:04;;;;;;;5.85;5.10;;;16.30;99.90;;;;;;4992300;28;20022;-76
2021/10/03 08:40:30;;;;;;;7.70;6.35;;;16.30;99.90;;;;;;4987852;28;20035;-76
2021/10/03 08:42:56;;;;;;;6.63;5.35;;;16.10;99.90;;;;;;4994464;28;20023;-76
2021/10/03 08:45:21;;;;;;;7.05;5.57;;;16.20;99.90;;;;;;5005718;28;20030;-76
2021/10/03 08:47:48;;;;;;;6.57;5.50;;;16.30;99.90;;;;;;5008250;28;20038;-76
2021/10/03 08:50:16;;;;;;;8.88;5.65;;;16.30;99.90;;;;;;4989989;28;20101;-76
2021/10/03 08:52:43;;;;;;;6.72;5.53;;;16.10;99.90;;;;;;4992261;28;20037;-76
2021/10/03 08:55:11;;;;;;;7.03;5.78;;;16.20;99.90;;;;;;4990735;28;20373;-76
2021/10/03 08:57:37;;;;;;;6.95;6.00;;;16.10;99.90;;;;;;4992315;28;20473;-75
2021/10/03 09:00:19;;;;;;;5.78;5.28;;;16.20;99.90;;;;;;4992021;28;20045;-76
2021/10/03 09:02:57;;;;;;;;;;;16.40;99.90;;;;;;4991724;28;20030;-76
2021/10/03 09:05:25;;;;;;;8.00;6.25;;;16.60;99.90;;;;;;4961137;28;19914;-76
2021/10/03 09:08:10;;;;;;;8.43;5.72;;;17.00;99.90;;;;;;4971917;28;20074;-76
2021/10/03 09:11:01;;;;;;;6.07;5.47;;;16.80;99.90;;;;;;4972396;28;20031;-76
2021/10/03 09:13:33;;;;;;;7.75;6.25;;;17.00;99.90;;;;;;5004004;28;20110;-76
2021/10/03 09:16:29;;;;;;;6.07;4.53;;;17.10;99.90;;;;;;4426880;28;20002950;-76
2021/10/03 09:19:29;;;;;;;5.70;4.77;;;17.40;99.90;;;;;;12;5465;20024384;-77
2021/10/03 09:22:30;;;;;;;6.90;4.75;;;17.20;99.90;;;;;;9;20002783;20023914;-76
2021/10/03 09:24:55;;;;;;;5.35;3.85;;;17.10;99.90;;;;;;145441;33;20003695;-76
2021/10/03 09:27:21;;;;;;;6.05;5.45;;;17.40;99.90;;;;;;4971983;28;20039;-76
2021/10/03 09:29:47;;;;;;;5.65;5.15;;;17.50;99.90;;;;;;4969991;28;20042;-79
2021/10/03 09:32:15;;;;;;;5.95;5.20;;;17.70;99.90;;;;;;4953661;28;20095;-75
2021/10/03 09:34:46;;;;;;;10.60;5.88;;;17.70;99.90;;;;;;4954198;28;20031;-76
2021/10/03 09:37:19;;;;;;;5.70;4.75;;;17.90;99.90;;;;;;4963369;28;20113;-77
2021/10/03 09:39:46;;;;;;;5.65;5.15;;;18.10;99.90;;;;;;4962470;28;20023;-75
2021/10/03 09:42:17;;;;;;;5.78;5.10;;;18.20;99.90;;;;;;4963126;28;20413;-76
2021/10/03 09:45:12;;;;;;;6.53;5.35;;;18.30;99.90;;;;;;4961554;28;20480;-75
2021/10/03 09:47:40;;;;;;;8.27;5.22;;;18.30;99.90;;;;;;4961687;28;20039;-75
2021/10/03 09:50:07;;;;;;;5.85;5.25;;;18.30;99.90;;;;;;4961760;28;20102;-76
2021/10/03 09:52:33;;;;;;;7.22;5.25;;;18.50;99.90;;;;;;4961915;28;20089;-76
2021/10/03 09:55:02;;;;;;;6.72;4.82;;;18.80;99.90;;;;;;4961466;28;20118;-75
2021/10/03 09:57:29;;;;;;;5.22;4.72;;;18.80;99.90;;;;;;4962592;28;20035;-75
2021/10/03 09:59:55;;;;;;;5.82;4.93;;;18.70;99.90;;;;;;4961924;28;20536;-76
2021/10/03 10:02:21;;;;;;;5.28;4.78;;;18.90;99.90;;;;;;4963051;28;20019;-75
2021/10/03 10:04:47;;;;;;;5.85;5.28;;;19.00;99.90;;;;;;4961323;28;20458;-76
2021/10/03 10:07:15;;;;;;;5.85;5.05;;;18.90;99.90;;;;;;4962320;28;20019;-76
2021/10/03 10:09:44;;;;;;;5.80;5.10;;;19.00;99.90;;;;;;4961716;28;20019;-75
2021/10/03 10:12:14;;;;;;;7.35;5.18;;;19.10;99.90;;;;;;4961478;28;20046;-75
2021/10/03 10:14:59;;;;;;;5.38;4.90;;;19.50;99.90;;;;;;4961495;28;20475;-76
2021/10/03 10:17:35;;;;;;;6.88;5.35;;;19.40;99.90;;;;;;4961492;28;20117;-75
2021/10/03 10:20:22;;;;;;;10.43;5.07;;;19.70;99.90;;;;;;4961831;28;20023;-75
2021/10/03 10:23:16;;;;;;;5.70;5.13;;;19.70;99.90;;;;;;4961398;28;20023;-75
2021/10/03 10:25:53;;;;;;;6.32;4.97;;;19.60;99.90;;;;;;4960845;28;20038;-75
2021/10/03 10:28:34;;;;;;;5.45;4.93;;;19.40;99.90;;;;;;4962712;28;20089;-76
2021/10/03 10:31:09;;;;;;;5.28;4.78;;;19.30;99.90;;;;;;4962395;28;20035;-75
2021/10/03 10:33:49;;;;;;;6.82;4.80;;;19.30;99.90;;;;;;4962963;28;20512;-75
2021/10/03 10:36:37;;;;;;;4.70;4.30;;;19.40;99.90;;;;;;4960534;28;20043;-75
2021/10/03 10:39:09;;;;;;;5.25;4.72;;;19.50;99.90;;;;;;4961149;28;20081;-76
2021/10/03 10:41:41;;;;;;;5.68;5.13;;;19.70;99.90;;;;;;4963034;28;20486;-76
2021/10/03 10:44:26;;;;;;;5.55;4.53;;;19.80;99.90;;;;;;4963538;28;20023;-75
2021/10/03 10:46:53;;;;;;;4.82;4.40;;;19.70;99.90;;;;;;4964588;28;20026;-76
2021/10/03 10:49:40;;;;;;;5.10;4.60;;;19.70;99.90;;;;;;4962807;28;20065;-76
2021/10/03 10:52:18;;;;;;;5.15;4.65;;;19.80;99.90;;;;;;4963657;28;20038;-76
2021/10/03 10:55:04;;;;;;;7.45;5.15;;;19.90;99.90;;;;;;4962523;28;20027;-75
2021/10/03 10:57:31;;;;;;;7.57;5.03;;;19.90;99.90;;;;;;4961729;28;20039;-75
2021/10/03 11:00:20;;;;;;;5.47;4.38;;;19.70;99.90;;;;;;4961563;28;20031;-75
2021/10/03 11:02:56;;;;;;;5.53;4.38;;;19.70;99.90;;;;;;4962578;28;20106;-77
2021/10/03 11:05:37;;;;;;;9.88;5.40;;;19.70;99.90;;;;;;4961137;28;20506;-76
2021/10/03 11:08:13;;;;;;;5.57;4.97;;;19.60;99.90;;;;;;4965593;28;20034;-74
2021/10/03 11:10:59;;;;;;;6.78;4.43;;;19.70;99.90;;;;;;4965828;28;20035;-80
2021/10/03 11:13:45;;;;;;;4.95;4.45;;;19.60;99.90;;;;;;4964503;28;20034;-77
2021/10/03 11:16:27;;;;;;;5.95;4.35;;;19.60;99.90;;;;;;4964413;28;20436;-76
2021/10/03 11:19:29;;;;;;;7.57;4.32;;;19.60;99.90;;;;;;4964477;28;20031;-76
2021/10/03 11:21:59;;;;;;;4.63;4.20;;;19.60;99.90;;;;;;4942986;28;20077;-75
2021/10/03 11:24:43;;;;;;;6.63;4.50;;;19.70;99.90;;;;;;4964906;28;20459;-76
2021/10/03 11:27:21;;;;;;;5.95;4.50;;;19.90;99.90;;;;;;4965328;28;20030;-76
2021/10/03 11:29:52;;;;;;;5.50;4.20;;;19.90;99.90;;;;;;4964830;28;20047;-76
2021/10/03 11:32:19;;;;;;;4.72;4.32;;;20.10;99.90;;;;;;4965017;28;20055;-75
2021/10/03 11:34:49;;;;;;;5.57;4.97;;;20.20;99.90;;;;;;4964974;28;20490;-75
2021/10/03 11:37:25;;;;;;;4.80;4.35;;;20.40;99.90;;;;;;4965039;28;20030;-75
2021/10/03 11:39:54;;;;;;;7.88;5.60;;;20.30;99.90;;;;;;4964737;28;20078;-75
2021/10/03 11:42:25;;;;;;;5.90;4.50;;;20.20;99.90;;;;;;4965475;28;20027;-75
2021/10/03 11:44:57;;;;;;;5.65;4.22;;;20.20;99.90;;;;;;4964367;28;20023;-76
2021/10/03 11:47:23;;;;;;;6.05;4.85;;;20.30;99.90;;;;;;4963198;28;20126;-76
2021/10/03 11:49:48;;;;;;;6.75;5.40;;;20.40;99.90;;;;;;4965222;28;20106;-76
2021/10/03 11:52:29;;;;;;;4.70;4.30;;;20.70;99.90;;;;;;4970831;28;20034;-76
2021/10/03 11:55:18;;;;;;;6.20;4.95;;;21.00;99.90;;;;;;4977193;28;20031;-76
2021/10/03 11:57:49;;;;;;;4.90;4.40;;;20.90;99.90;;;;;;4966971;28;20039;-76
2021/10/03 12:00:27;;;;;;;4.80;4.40;;;20.80;99.90;;;;;;4964690;28;20122;-76
2021/10/03 12:02:55;;;;;;;6.30;4.72;;;20.70;99.90;;;;;;4964131;28;20062;-76
2021/10/03 12:05:21;;;;;;;6.90;4.60;;;20.90;99.90;;;;;;4963485;28;20019;-76
2021/10/03 12:08:18;;;;;;;6.30;5.20;;;21.00;99.90;;;;;;4964581;28;20050;-76
2021/10/03 12:10:45;;;;;;;5.35;4.75;;;21.00;99.90;;;;;;4963201;28;20070;-76
2021/10/03 12:13:11;;;;;;;4.97;4.57;;;21.00;99.90;;;;;;4963247;28;20050;-76
2021/10/03 12:15:55;;;;;;;6.50;4.68;;;21.10;99.90;;;;;;4963251;28;20026;-75
2021/10/03 12:18:27;;;;;;;5.70;4.57;;;21.10;99.90;;;;;;4961099;28;20059;-75
2021/10/03 12:21:17;;;;;;;7.43;4.90;;;21.20;99.90;;;;;;4963297;28;20397;-76
2021/10/03 12:23:52;;;;;;;5.15;4.13;;;21.00;99.90;;;;;;4963795;28;20449;-77
2021/10/03 12:26:28;;;;;;;6.28;4.90;;;21.00;99.90;;;;;;4963458;28;20038;-77
2021/10/03 12:29:03;;;;;;;4.97;4.53;;;21.10;99.90;;;;;;4963090;28;20114;-77
2021/10/03 12:31:48;;;;;;;7.32;4.63;;;21.30;99.90;;;;;;4963147;28;20058;-77
2021/10/03 12:34:14;;;;;;;5.57;4.63;;;21.30;99.90;;;;;;4963612;28;20389;-77
2021/10/03 12:36:49;;;;;;;5.15;4.65;;;21.60;99.90;;;;;;4963116;28;20046;-78
2021/10/03 12:39:19;;;;;;;5.15;4.65;;;22.10;99.90;;;;;;4963601;28;20022;-77
2021/10/03 12:41:45;;;;;;;5.03;4.60;;;22.10;99.90;;;;;;4963710;28;20041;-77
2021/10/03 12:44:10;;;;;;;5.65;4.65;;;21.90;99.90;;;;;;4962655;28;20027;-77
2021/10/03 12:46:36;;;;;;;7.25;4.65;;;22.10;99.90;;;;;;4963798;28;20370;-77
2021/10/03 12:49:02;;;;;;;4.72;4.30;;;22.30;99.90;;;;;;4963610;28;20066;-77
2021/10/03 12:51:28;;;;;;;8.35;4.57;;;21.70;99.90;;;;;;4964018;28;20019;-78
2021/10/03 12:53:54;;;;;;;12.73;5.50;;;21.80;99.90;;;;;;4963132;28;20031;-78